createdAt,value
2023-04-16T00:00:21.417Z,10.20
2023-04-16T00:02:48.280Z,10.10
2023-04-16T00:05:15.204Z,10.10
2023-04-16T00:07:41.877Z,10.10
2023-04-16T00:10:08.778Z,10.00
2023-04-16T00:12:35.491Z,10.10
2023-04-16T00:15:02.461Z,10.10
2023-04-16T00:17:29.268Z,10.10
2023-04-16T00:19:55.969Z,10.00
2023-04-16T00:22:22.672Z,10.00
2023-04-16T00:24:49.371Z,10.00
2023-04-16T00:27:16.150Z,9.90
2023-04-16T00:29:42.839Z,9.90
2023-04-16T00:32:09.545Z,9.90
2023-04-16T00:34:36.232Z,9.80
2023-04-16T00:37:02.956Z,9.80
2023-04-16T00:39:29.635Z,9.80
2023-04-16T00:41:56.316Z,9.80
2023-04-16T00:44:23.085Z,9.80
2023-04-16T00:46:49.788Z,9.90
2023-04-16T00:49:16.480Z,9.90
2023-04-16T00:51:43.180Z,9.90
2023-04-16T00:54:09.861Z,9.80
2023-04-16T00:56:36.646Z,9.80
2023-04-16T00:59:03.393Z,9.70
2023-04-16T01:01:30.161Z,9.70
2023-04-16T01:03:57.132Z,9.70
2023-04-16T01:06:23.853Z,9.70
2023-04-16T01:08:50.552Z,9.70
2023-04-16T01:11:17.237Z,9.70
2023-04-16T01:13:43.951Z,9.70
2023-04-16T01:16:11.411Z,9.70
2023-04-16T01:18:38.355Z,9.70
2023-04-16T01:21:05.293Z,9.70
2023-04-16T01:23:32.052Z,9.70
2023-04-16T01:25:58.759Z,9.70
2023-04-16T01:28:25.445Z,9.60
2023-04-16T01:30:52.202Z,9.60
2023-04-16T01:33:19.100Z,9.60
2023-04-16T01:35:45.770Z,9.60
2023-04-16T01:38:12.471Z,9.50
2023-04-16T01:40:39.228Z,9.50
2023-04-16T01:43:05.992Z,9.50
2023-04-16T01:45:33.422Z,9.50
2023-04-16T01:48:00.181Z,9.50
2023-04-16T01:50:26.938Z,9.50
2023-04-16T01:52:53.709Z,9.50
2023-04-16T01:55:20.510Z,9.50
2023-04-16T01:57:47.208Z,9.40
2023-04-16T02:00:14.010Z,9.40
2023-04-16T02:02:40.823Z,9.40
2023-04-16T02:05:07.787Z,9.40
2023-04-16T02:07:34.490Z,9.40
2023-04-16T02:10:01.227Z,9.40
2023-04-16T02:12:27.939Z,9.30
2023-04-16T02:14:54.707Z,9.30
2023-04-16T02:17:21.488Z,9.30
2023-04-16T02:19:48.267Z,9.20
2023-04-16T02:22:14.946Z,9.20
2023-04-16T02:24:41.638Z,9.20
2023-04-16T02:27:08.345Z,9.20
2023-04-16T02:29:35.364Z,9.20
2023-04-16T02:32:02.088Z,9.20
2023-04-16T02:34:28.796Z,9.20
2023-04-16T02:36:55.600Z,9.20
2023-04-16T02:39:22.304Z,9.20
2023-04-16T02:41:48.980Z,9.20
2023-04-16T02:44:15.656Z,9.20
2023-04-16T02:46:42.400Z,9.20
2023-04-16T02:49:09.284Z,9.20
2023-04-16T02:51:36.129Z,9.30
2023-04-16T02:54:02.808Z,9.30
2023-04-16T02:56:29.501Z,9.30
2023-04-16T02:58:56.218Z,9.30
2023-04-16T03:01:22.958Z,9.30
2023-04-16T03:03:49.764Z,9.40
2023-04-16T03:06:16.529Z,9.40
2023-04-16T03:08:43.217Z,9.40
2023-04-16T03:11:09.916Z,9.40
2023-04-16T03:13:36.581Z,9.40
2023-04-16T03:16:03.400Z,9.40
2023-04-16T03:18:30.251Z,9.30
2023-04-16T03:20:56.931Z,9.30
2023-04-16T03:23:23.652Z,9.30
2023-04-16T03:25:50.373Z,9.30
2023-04-16T03:28:17.043Z,9.30
2023-04-16T03:30:43.711Z,9.30
2023-04-16T03:33:10.472Z,9.30
2023-04-16T03:35:37.178Z,9.20
2023-04-16T03:38:03.979Z,9.20
2023-04-16T03:40:30.676Z,9.20
2023-04-16T03:42:57.437Z,9.20
2023-04-16T03:45:24.155Z,9.20
2023-04-16T03:47:50.887Z,9.20
2023-04-16T03:50:18.302Z,9.20
2023-04-16T03:52:45.236Z,9.20
2023-04-16T03:55:11.971Z,9.20
2023-04-16T03:57:38.714Z,9.30
2023-04-16T04:00:06.059Z,9.30
2023-04-16T04:02:32.894Z,9.30
2023-04-16T04:04:59.737Z,9.30
2023-04-16T04:07:26.546Z,9.40
2023-04-16T04:09:53.232Z,9.40
2023-04-16T04:12:19.989Z,9.40
2023-04-16T04:14:46.681Z,9.40
2023-04-16T04:17:13.366Z,9.50
2023-04-16T04:19:47.118Z,9.40
2023-04-16T04:22:21.250Z,9.50
2023-04-16T04:24:48.008Z,9.50
2023-04-16T04:27:14.714Z,9.50
2023-04-16T04:29:41.390Z,9.60
2023-04-16T04:32:08.185Z,9.60
2023-04-16T04:34:34.939Z,9.60
2023-04-16T04:37:01.675Z,9.60
2023-04-16T04:39:28.337Z,9.60
2023-04-16T04:41:55.034Z,9.70
2023-04-16T04:44:21.718Z,9.60
2023-04-16T04:46:48.422Z,9.70
2023-04-16T04:49:15.107Z,9.70
2023-04-16T04:51:41.863Z,9.60
2023-04-16T04:54:08.549Z,9.70
2023-04-16T04:56:35.225Z,9.70
2023-04-16T04:59:01.872Z,9.70
2023-04-16T05:01:28.734Z,9.70
2023-04-16T05:03:55.489Z,9.70
2023-04-16T05:06:22.206Z,9.70
2023-04-16T05:08:48.897Z,9.70
2023-04-16T05:11:15.633Z,9.70
2023-04-16T05:13:42.313Z,9.70
2023-04-16T05:16:09.008Z,9.70
2023-04-16T05:18:35.774Z,9.70
2023-04-16T05:21:02.459Z,9.70
2023-04-16T05:23:29.132Z,9.70
2023-04-16T05:25:55.963Z,9.70
2023-04-16T05:28:22.659Z,9.80
2023-04-16T05:30:49.434Z,9.80
2023-04-16T05:33:16.235Z,9.80
2023-04-16T05:35:42.933Z,9.80
2023-04-16T05:38:09.608Z,9.80
2023-04-16T05:40:36.455Z,9.80
2023-04-16T05:43:03.127Z,9.90
2023-04-16T05:45:29.972Z,9.90
2023-04-16T05:47:56.687Z,9.90
2023-04-16T05:50:23.433Z,9.90
2023-04-16T05:52:50.118Z,10.00
2023-04-16T05:55:16.834Z,10.00
2023-04-16T05:57:43.497Z,10.10
2023-04-16T06:00:10.511Z,10.10
2023-04-16T06:02:37.390Z,10.10
2023-04-16T06:05:04.526Z,10.10
2023-04-16T06:07:31.258Z,10.10
2023-04-16T06:09:57.953Z,10.20
2023-04-16T06:12:24.620Z,10.20
2023-04-16T06:14:51.333Z,10.20
2023-04-16T06:17:18.048Z,10.20
2023-04-16T06:19:44.864Z,10.30
2023-04-16T06:22:11.528Z,10.30
2023-04-16T06:24:38.215Z,10.40
2023-04-16T06:27:04.908Z,10.40
2023-04-16T06:29:40.346Z,10.40
2023-04-16T06:32:08.094Z,10.40
2023-04-16T06:34:34.851Z,10.50
2023-04-16T06:37:01.548Z,10.50
2023-04-16T06:39:28.314Z,10.50
2023-04-16T06:41:55.243Z,10.60
2023-04-16T06:44:22.041Z,10.60
2023-04-16T06:46:48.751Z,10.70
2023-04-16T06:49:15.573Z,10.70
2023-04-16T06:51:42.463Z,10.80
2023-04-16T06:54:09.237Z,10.90
2023-04-16T06:56:35.963Z,10.90
2023-04-16T06:59:02.855Z,11.00
2023-04-16T07:01:29.596Z,11.10
2023-04-16T07:03:56.664Z,11.10
2023-04-16T07:06:23.477Z,11.20
2023-04-16T07:08:50.186Z,11.30
2023-04-16T07:11:16.890Z,11.40
2023-04-16T07:13:43.595Z,11.50
2023-04-16T07:16:10.359Z,11.50
2023-04-16T07:18:37.141Z,11.60
2023-04-16T07:21:04.258Z,11.70
2023-04-16T07:23:31.284Z,11.80
2023-04-16T07:25:58.030Z,11.90
2023-04-16T07:28:24.882Z,12.00
2023-04-16T07:30:51.588Z,12.10
2023-04-16T07:33:18.296Z,12.20
2023-04-16T07:35:45.033Z,12.30
2023-04-16T07:38:11.780Z,12.50
2023-04-16T07:40:38.510Z,12.60
2023-04-16T07:43:05.215Z,12.70
2023-04-16T07:45:31.910Z,12.80
2023-04-16T07:47:58.713Z,12.90
2023-04-16T07:50:25.593Z,13.00
2023-04-16T07:52:52.305Z,13.10
2023-04-16T07:55:19.109Z,13.20
2023-04-16T07:57:45.850Z,13.30
2023-04-16T08:00:12.866Z,13.40
2023-04-16T08:02:39.856Z,13.60
2023-04-16T08:05:07.169Z,13.70
2023-04-16T08:07:34.754Z,13.80
2023-04-16T08:10:01.820Z,13.90
2023-04-16T08:12:29.273Z,14.00
2023-04-16T08:14:55.967Z,14.00
2023-04-16T08:17:22.766Z,14.10
2023-04-16T08:19:49.519Z,14.30
2023-04-16T08:22:16.529Z,14.30
2023-04-16T08:24:43.204Z,14.40
2023-04-16T08:27:18.596Z,14.50
2023-04-16T08:29:46.227Z,14.60
2023-04-16T08:32:13.036Z,14.70
2023-04-16T08:34:39.775Z,14.70
2023-04-16T08:37:06.489Z,14.80
2023-04-16T08:39:33.228Z,14.80
2023-04-16T08:41:59.910Z,14.80
2023-04-16T08:44:29.812Z,14.90
2023-04-16T08:46:56.996Z,14.90
2023-04-16T08:49:23.716Z,14.90
2023-04-16T08:51:51.381Z,14.90
2023-04-16T08:54:44.513Z,14.90
2023-04-16T08:57:11.182Z,14.90
2023-04-16T08:59:38.871Z,14.90
2023-04-16T09:02:06.025Z,15.00
2023-04-16T09:04:32.904Z,15.10
2023-04-16T09:07:04.048Z,15.20
2023-04-16T09:09:31.586Z,15.30
2023-04-16T09:11:59.571Z,15.40
2023-04-16T09:14:26.239Z,15.50
2023-04-16T09:16:53.650Z,15.60
2023-04-16T09:19:20.362Z,15.70
2023-04-16T09:21:47.527Z,15.80
2023-04-16T09:24:14.316Z,16.00
2023-04-16T09:26:44.179Z,16.20
2023-04-16T09:29:11.034Z,16.40
2023-04-16T09:31:37.978Z,16.40
2023-04-16T09:34:08.727Z,16.50
2023-04-16T09:36:35.924Z,16.60
2023-04-16T09:39:02.800Z,16.70
2023-04-16T09:41:31.021Z,16.90
2023-04-16T09:43:59.633Z,16.90
2023-04-16T09:46:42.573Z,17.10
2023-04-16T09:49:15.503Z,17.30
2023-04-16T09:51:43.222Z,17.50
2023-04-16T09:54:10.152Z,17.70
2023-04-16T09:56:44.108Z,17.80
2023-04-16T09:59:18.071Z,17.90
2023-04-16T10:01:44.843Z,18.00
2023-04-16T10:04:11.644Z,18.00
2023-04-16T10:06:38.511Z,18.00
2023-04-16T10:09:09.145Z,18.10
2023-04-16T10:11:35.996Z,18.10
2023-04-16T10:14:03.661Z,18.10
2023-04-16T10:16:30.891Z,18.10
2023-04-16T10:18:57.632Z,18.00
2023-04-16T10:21:24.368Z,18.00
2023-04-16T10:23:51.040Z,18.00
2023-04-16T10:26:18.164Z,18.00
2023-04-16T10:28:45.316Z,17.90
2023-04-16T10:31:12.074Z,17.80
2023-04-16T10:33:41.947Z,17.80
2023-04-16T10:36:11.944Z,17.80
2023-04-16T10:38:49.361Z,18.00
2023-04-16T10:41:16.059Z,18.10
2023-04-16T10:43:46.792Z,18.10
2023-04-16T10:46:33.709Z,18.00
2023-04-16T10:49:01.379Z,18.00
2023-04-16T10:51:35.724Z,18.00
2023-04-16T10:54:08.233Z,18.00
2023-04-16T10:56:35.859Z,18.10
2023-04-16T10:59:06.143Z,18.20
2023-04-16T11:01:33.601Z,18.40
2023-04-16T11:04:01.408Z,18.60
2023-04-16T11:06:28.520Z,18.60
2023-04-16T11:08:55.521Z,18.50
2023-04-16T11:11:22.445Z,18.40
2023-04-16T11:13:49.188Z,18.30
2023-04-16T11:16:16.347Z,18.50
2023-04-16T11:18:47.720Z,18.80
2023-04-16T11:21:18.622Z,19.50
2023-04-16T11:23:52.852Z,20.10
2023-04-16T11:26:27.400Z,20.30
2023-04-16T11:28:55.050Z,20.40
2023-04-16T11:31:22.365Z,20.40
2023-04-16T11:33:49.635Z,20.30
2023-04-16T11:36:16.372Z,20.20
2023-04-16T11:38:43.110Z,20.10
2023-04-16T11:41:10.177Z,19.90
2023-04-16T11:43:36.995Z,19.80
2023-04-16T11:46:20.133Z,19.60
2023-04-16T11:48:52.677Z,19.50
2023-04-16T11:51:19.431Z,19.50
2023-04-16T11:53:48.918Z,19.40
2023-04-16T11:56:15.642Z,19.20
2023-04-16T11:58:45.737Z,19.20
2023-04-16T12:01:12.659Z,19.20
2023-04-16T12:03:46.540Z,19.10
2023-04-16T12:06:13.452Z,19.10
2023-04-16T12:08:40.200Z,19.00
2023-04-16T12:11:06.907Z,18.90
2023-04-16T12:13:33.619Z,18.90
2023-04-16T12:16:00.321Z,19.00
2023-04-16T12:18:27.209Z,19.10
2023-04-16T12:20:54.038Z,19.20
2023-04-16T12:23:33.350Z,19.30
2023-04-16T12:26:07.023Z,19.30
2023-04-16T12:28:34.945Z,19.40
2023-04-16T12:31:02.127Z,19.60
2023-04-16T12:33:28.854Z,19.60
2023-04-16T12:35:55.678Z,19.80
2023-04-16T12:38:24.562Z,19.90
2023-04-16T12:40:51.949Z,20.20
2023-04-16T12:43:21.060Z,20.40
2023-04-16T12:45:47.833Z,20.60
2023-04-16T12:48:14.531Z,20.80
2023-04-16T12:50:41.251Z,20.90
2023-04-16T12:53:08.030Z,21.00
2023-04-16T12:55:34.735Z,21.00
2023-04-16T12:58:01.429Z,21.20
2023-04-16T13:00:28.166Z,21.40
2023-04-16T13:02:54.926Z,21.60
2023-04-16T13:05:21.738Z,21.90
2023-04-16T13:07:48.443Z,22.20
2023-04-16T13:10:15.128Z,22.60
2023-04-16T13:12:41.848Z,22.80
2023-04-16T13:15:09.300Z,23.00
2023-04-16T13:17:36.084Z,23.00
2023-04-16T13:20:02.899Z,23.00
2023-04-16T13:22:29.620Z,23.20
2023-04-16T13:24:56.326Z,23.40
2023-04-16T13:27:23.124Z,23.70
2023-04-16T13:29:49.876Z,24.10
2023-04-16T13:32:16.600Z,24.40
2023-04-16T13:34:43.312Z,24.60
2023-04-16T13:37:10.008Z,24.40
2023-04-16T13:39:36.763Z,24.40
2023-04-16T13:42:03.486Z,24.40
2023-04-16T13:44:30.217Z,24.00
2023-04-16T13:46:57.035Z,23.50
2023-04-16T13:49:23.787Z,23.00
2023-04-16T13:51:50.572Z,22.50
2023-04-16T13:54:17.344Z,21.90
2023-04-16T13:56:44.058Z,21.30
2023-04-16T13:59:11.023Z,20.80
2023-04-16T14:01:38.007Z,20.50
2023-04-16T14:04:04.770Z,20.20
2023-04-16T14:06:32.060Z,20.00
2023-04-16T14:08:58.858Z,19.80
2023-04-16T14:11:25.604Z,19.60
2023-04-16T14:13:52.344Z,19.40
2023-04-16T14:16:19.281Z,19.30
2023-04-16T14:18:46.094Z,19.20
2023-04-16T14:21:13.301Z,19.20
2023-04-16T14:23:39.995Z,19.10
2023-04-16T14:26:06.707Z,19.00
2023-04-16T14:28:33.450Z,18.90
2023-04-16T14:31:00.152Z,18.80
2023-04-16T14:33:26.875Z,18.70
2023-04-16T14:35:53.565Z,18.60
2023-04-16T14:38:20.275Z,18.60
2023-04-16T14:40:47.911Z,18.70
2023-04-16T14:43:14.644Z,19.50
2023-04-16T14:45:41.362Z,20.30
2023-04-16T14:48:08.131Z,21.60
2023-04-16T14:50:35.213Z,23.00
2023-04-16T14:53:01.942Z,24.20
2023-04-16T14:55:30.111Z,25.10
2023-04-16T14:57:56.817Z,25.50
2023-04-16T15:00:23.767Z,25.50
2023-04-16T15:02:50.618Z,25.00
2023-04-16T15:05:17.451Z,24.30
2023-04-16T15:07:44.181Z,23.70
2023-04-16T15:10:11.071Z,23.20
2023-04-16T15:12:38.349Z,22.70
2023-04-16T15:15:08.672Z,22.30
2023-04-16T15:17:35.422Z,21.80
2023-04-16T15:20:02.200Z,21.40
2023-04-16T15:22:28.915Z,20.90
2023-04-16T15:24:55.655Z,20.60
2023-04-16T15:27:22.449Z,20.30
2023-04-16T15:29:49.144Z,20.00
2023-04-16T15:32:15.864Z,19.80
2023-04-16T15:34:42.575Z,19.60
2023-04-16T15:37:09.315Z,19.40
2023-04-16T15:39:36.033Z,19.20
2023-04-16T15:42:07.081Z,19.00
2023-04-16T15:44:34.300Z,18.90
2023-04-16T15:47:01.129Z,18.80
2023-04-16T15:49:27.850Z,18.80
2023-04-16T15:51:54.616Z,18.70
2023-04-16T15:54:21.305Z,18.70
2023-04-16T15:56:48.022Z,18.60
2023-04-16T15:59:14.767Z,18.60
2023-04-16T16:01:41.556Z,18.50
2023-04-16T16:04:08.619Z,18.50
2023-04-16T16:06:35.613Z,18.40
2023-04-16T16:09:02.391Z,18.40
2023-04-16T16:11:29.212Z,18.40
2023-04-16T16:13:55.952Z,18.40
2023-04-16T16:16:22.678Z,18.30
2023-04-16T16:18:49.373Z,18.40
2023-04-16T16:21:16.116Z,18.50
2023-04-16T16:23:42.904Z,18.60
2023-04-16T16:26:09.680Z,18.70
2023-04-16T16:28:36.448Z,18.80
2023-04-16T16:31:03.704Z,18.80
2023-04-16T16:33:30.699Z,18.80
2023-04-16T16:35:57.546Z,18.80
2023-04-16T16:38:24.222Z,18.80
2023-04-16T16:40:50.948Z,18.60
2023-04-16T16:43:17.716Z,18.60
2023-04-16T16:45:44.524Z,18.50
2023-04-16T16:48:11.300Z,18.40
2023-04-16T16:50:38.015Z,18.30
2023-04-16T16:53:04.779Z,18.40
2023-04-16T16:55:31.593Z,18.40
2023-04-16T16:57:58.455Z,18.30
2023-04-16T17:00:29.167Z,18.30
2023-04-16T17:02:56.255Z,18.20
2023-04-16T17:05:36.793Z,18.20
2023-04-16T17:08:03.704Z,18.20
2023-04-16T17:10:30.430Z,18.10
2023-04-16T17:12:57.291Z,18.10
2023-04-16T17:15:24.128Z,18.10
2023-04-16T17:17:52.025Z,18.00
2023-04-16T17:20:18.787Z,17.90
2023-04-16T17:22:45.479Z,17.80
2023-04-16T17:25:12.253Z,17.70
2023-04-16T17:27:41.740Z,17.60
2023-04-16T17:30:08.835Z,17.50
2023-04-16T17:32:35.606Z,17.40
2023-04-16T17:35:03.599Z,17.30
2023-04-16T17:37:31.914Z,17.20
2023-04-16T17:39:58.629Z,17.20
2023-04-16T17:42:25.335Z,17.10
2023-04-16T17:44:52.076Z,17.10
2023-04-16T17:47:18.826Z,17.00
2023-04-16T17:49:45.608Z,16.90
2023-04-16T17:52:12.312Z,16.90
2023-04-16T17:54:39.048Z,16.80
2023-04-16T17:57:08.658Z,16.70
2023-04-16T17:59:35.373Z,16.70
2023-04-16T18:02:02.253Z,16.60
2023-04-16T18:04:29.063Z,16.60
2023-04-16T18:06:55.902Z,16.50
2023-04-16T18:09:22.679Z,16.50
2023-04-16T18:11:49.504Z,16.50
2023-04-16T18:14:16.302Z,16.50
2023-04-16T18:19:47.184Z,16.50
2023-04-16T18:24:46.802Z,16.30
2023-04-16T18:27:13.699Z,16.30
2023-04-16T18:29:40.745Z,16.20
2023-04-16T18:32:09.879Z,16.20
2023-04-16T18:34:38.635Z,16.20
2023-04-16T18:37:05.387Z,16.20
2023-04-16T18:39:35.218Z,16.20
2023-04-16T18:42:01.955Z,16.10
2023-04-16T18:44:28.827Z,16.10
2023-04-16T18:46:55.774Z,16.10
2023-04-16T18:49:22.655Z,16.10
2023-04-16T18:51:49.416Z,16.10
2023-04-16T18:54:16.118Z,16.00
2023-04-16T18:56:42.951Z,16.00
2023-04-16T18:59:10.083Z,16.00
2023-04-16T19:01:37.081Z,16.00
2023-04-16T19:04:03.972Z,15.90
2023-04-16T19:06:30.803Z,15.90
2023-04-16T19:08:57.508Z,15.90
2023-04-16T19:11:24.207Z,15.90
2023-04-16T19:13:50.906Z,15.90
2023-04-16T19:16:17.625Z,15.80
2023-04-16T19:18:44.388Z,15.80
2023-04-16T19:21:11.146Z,15.80
2023-04-16T19:23:37.856Z,15.80
2023-04-16T19:26:04.634Z,15.80
2023-04-16T19:28:31.361Z,15.80
2023-04-16T19:30:58.061Z,15.80
2023-04-16T19:33:24.798Z,15.70
2023-04-16T19:35:52.017Z,15.70
2023-04-16T19:38:18.892Z,15.60
2023-04-16T19:40:46.219Z,15.60
2023-04-16T19:43:13.105Z,15.50
2023-04-16T19:45:46.351Z,15.50
2023-04-16T19:48:14.247Z,15.40
2023-04-16T19:50:41.535Z,15.30
2023-04-16T19:53:08.497Z,15.30
2023-04-16T19:55:35.289Z,15.20
2023-04-16T19:58:02.203Z,15.20
2023-04-16T20:00:28.901Z,15.10
2023-04-16T20:02:55.745Z,15.10
2023-04-16T20:05:22.491Z,15.10
2023-04-16T20:07:51.250Z,15.10
2023-04-16T20:10:19.441Z,15.00
2023-04-16T20:12:46.196Z,15.00
2023-04-16T20:15:12.988Z,15.00
2023-04-16T20:17:39.705Z,14.90
2023-04-16T20:20:07.073Z,14.90
2023-04-16T20:22:33.758Z,14.90
2023-04-16T20:25:00.523Z,14.90
2023-04-16T20:27:27.275Z,14.90
2023-04-16T20:29:53.955Z,14.90
2023-04-16T20:32:20.687Z,14.80
2023-04-16T20:34:47.402Z,14.80
2023-04-16T20:37:14.370Z,14.90
2023-04-16T20:39:41.146Z,14.80
2023-04-16T20:42:08.439Z,14.80
2023-04-16T20:44:35.169Z,14.80
2023-04-16T20:47:02.097Z,14.80
2023-04-16T20:49:28.841Z,14.80
2023-04-16T20:51:55.510Z,14.80
2023-04-16T20:54:22.190Z,14.70
2023-04-16T20:56:48.880Z,14.70
2023-04-16T20:59:16.474Z,14.70
2023-04-16T21:01:43.314Z,14.70
2023-04-16T21:04:10.149Z,14.70
2023-04-16T21:06:37.098Z,14.70
2023-04-16T21:09:04.668Z,14.70
2023-04-16T21:11:31.512Z,14.60
2023-04-16T21:13:58.275Z,14.60
2023-04-16T21:16:25.074Z,14.50
2023-04-16T21:18:51.771Z,14.50
2023-04-16T21:21:18.491Z,14.50
2023-04-16T21:23:45.181Z,14.50
2023-04-16T21:26:12.085Z,14.50
2023-04-16T21:28:38.991Z,14.50
2023-04-16T21:31:05.708Z,14.50
2023-04-16T21:33:32.429Z,14.40
2023-04-16T21:35:59.145Z,14.50
2023-04-16T21:38:25.910Z,14.50
2023-04-16T21:40:52.679Z,14.50
2023-04-16T21:43:23.022Z,14.50
2023-04-16T21:45:52.664Z,14.50
2023-04-16T21:48:20.056Z,14.40
2023-04-16T21:50:46.747Z,14.40
2023-04-16T21:53:13.516Z,14.40
2023-04-16T21:55:40.212Z,14.40
2023-04-16T21:58:06.983Z,14.40
2023-04-16T22:00:33.681Z,14.40
2023-04-16T22:03:00.530Z,14.50
2023-04-16T22:05:27.387Z,14.40
2023-04-16T22:07:54.098Z,14.50
2023-04-16T22:10:20.855Z,14.50
2023-04-16T22:12:47.542Z,14.50
2023-04-16T22:15:14.318Z,14.50
2023-04-16T22:17:41.175Z,14.40
2023-04-16T22:20:08.379Z,14.40
2023-04-16T22:22:35.398Z,14.40
2023-04-16T22:25:02.327Z,14.40
2023-04-16T22:27:29.170Z,14.40
2023-04-16T22:29:55.876Z,14.40
2023-04-16T22:32:22.783Z,14.30
2023-04-16T22:34:49.643Z,14.30
2023-04-16T22:37:16.358Z,14.30
2023-04-16T22:39:43.054Z,14.30
2023-04-16T22:42:09.769Z,14.30
2023-04-16T22:44:36.747Z,14.30
2023-04-16T22:47:03.715Z,14.30
2023-04-16T22:49:31.242Z,14.30
2023-04-16T22:51:57.933Z,14.30
2023-04-16T22:54:31.132Z,14.30
2023-04-16T22:56:57.815Z,14.30
2023-04-16T22:59:24.775Z,14.30
2023-04-16T23:01:51.718Z,14.30
2023-04-16T23:04:18.538Z,14.30
2023-04-16T23:06:45.314Z,14.30
2023-04-16T23:09:12.224Z,14.30
2023-04-16T23:11:39.199Z,14.30
2023-04-16T23:14:05.923Z,14.20
2023-04-16T23:16:32.652Z,14.20
2023-04-16T23:18:59.324Z,14.20
2023-04-16T23:21:26.107Z,14.20
2023-04-16T23:23:52.855Z,14.20
2023-04-16T23:26:19.720Z,14.20
2023-04-16T23:28:46.471Z,14.20
2023-04-16T23:31:13.182Z,14.20
2023-04-16T23:33:39.930Z,14.20
2023-04-16T23:36:07.081Z,14.20
2023-04-16T23:38:33.799Z,14.20
2023-04-16T23:41:00.499Z,14.20
2023-04-16T23:43:27.241Z,14.10
2023-04-16T23:45:54.205Z,14.10
2023-04-16T23:48:20.940Z,14.10
2023-04-16T23:50:47.610Z,14.10
2023-04-16T23:53:14.311Z,14.10
2023-04-16T23:55:41.008Z,14.10
2023-04-16T23:58:07.668Z,14.10
